メインページ
METAR-TAF:

METAR-TAF

空港 :

テヘラン, イラン

メヘラーバード国際空港

緯度: 35-41N, 経度: 051-21E, 海抜: 1204m

現時点の気象観測

当レポートは32分前の11:30(UTC)に作成
南東の風 14kt
気温 29°C
湿度 9%
気圧 1018 hPa
視程10km以上
1,500メートル以下は雲なし、積乱雲なし

METAR: OIII 231130Z 13014KT CAVOK 29/M07 Q1017 A3005 NOSIG

時間: 16:32 (12:02 UTC)

予報

当レポートは1時間2分前の11:00(UTC)に作成
予報は23日の 12時(UTC)から 24日の 18時(UTC)まで有効
東/南東の風 10kt
視程: 8000m
高度4000ftの雲はほとんどない
高度10000ftの雲は散在している
23日の 12時(UTC)から 23日の 18時(UTC)まで一時的に
南東の風 16kt
23日の 20時(UTC)から 23日の 22時(UTC)まで徐々に
東/南東の風 8kt
視程: 7000m
高度4000ftの雲はほとんどない
高度10000ftの千切れ雲あり
24日の 12時(UTC)から 24日の 18時(UTC)まで一時的に
視程: 5000m
高度3000ftの雲はほとんどない, 積乱雲.
高度3500ftの雲は散在している
高度10000ftの曇り
にわか雨

TAF: OIII 231100Z 2312/2418 12005MPS 8000 FEW040 SCT100 TEMPO 2312/2318 14008MPS BECMG 2320/2322 12004MPS 7000 FEW040 BKN100 TEMPO 2412/2418 5000 SHRA FEW030CB SCT035 OVC100

4,000以上の空港の気象観測と天気予報(METAR報とTAF報)

利用可能な観測所は地図上に黄色い丸と赤い丸で示す。

丸の上にカーソルを重ねると観測所名を参照できる。

次にクリックすると気象観測と天気予報を参照できる。

マップの切り替え:黒色「×」印の緑ボタンをクリックして拡大、「-」印の緑ボタンをクリックして縮小、緑色の三角印をクリックして隣りの地図に切り替え


METAR-TAF: